createdAt,value
2024-03-04T00:00:34.624Z,36.53
2024-03-04T00:03:02.825Z,39.07
2024-03-04T00:05:30.502Z,41.97
2024-03-04T00:07:59.577Z,39.40
2024-03-04T00:10:27.689Z,37.77
2024-03-04T00:12:56.388Z,42.77
2024-03-04T00:15:24.504Z,43.23
2024-03-04T00:17:52.219Z,43.13
2024-03-04T00:20:20.485Z,41.67
2024-03-04T00:22:48.713Z,42.10
2024-03-04T00:25:18.542Z,44.40
2024-03-04T00:27:46.403Z,46.97
2024-03-04T00:30:14.540Z,41.53
2024-03-04T00:32:42.285Z,44.13
2024-03-04T00:35:12.009Z,45.63
2024-03-04T00:37:39.728Z,46.93
2024-03-04T00:40:08.163Z,45.07
2024-03-04T00:42:39.516Z,45.80
2024-03-04T00:45:07.942Z,46.10
2024-03-04T00:47:35.862Z,47.43
2024-03-04T00:50:03.813Z,48.03
2024-03-04T00:52:31.760Z,48.03
2024-03-04T00:54:59.443Z,45.97
2024-03-04T00:57:27.380Z,50.83
2024-03-04T00:59:56.953Z,46.20
2024-03-04T01:02:24.559Z,49.53
2024-03-04T01:04:52.291Z,49.03
2024-03-04T01:07:19.965Z,53.47
2024-03-04T01:09:47.721Z,47.67
2024-03-04T01:12:15.796Z,50.40
2024-03-04T01:14:43.616Z,48.90
2024-03-04T01:17:17.931Z,48.90
2024-03-04T01:19:48.158Z,46.80
2024-03-04T01:22:17.657Z,47.70
2024-03-04T01:24:45.883Z,49.43
2024-03-04T01:27:13.705Z,49.83
2024-03-04T01:29:42.569Z,46.30
2024-03-04T01:32:11.686Z,47.43
2024-03-04T01:34:41.611Z,44.70
2024-03-04T01:37:09.966Z,48.50
2024-03-04T01:39:38.057Z,47.03
2024-03-04T01:42:06.160Z,46.23
2024-03-04T01:44:34.780Z,48.10
2024-03-04T01:47:04.101Z,44.17
2024-03-04T01:49:32.612Z,44.30
2024-03-04T01:52:02.059Z,45.23
2024-03-04T01:54:30.047Z,42.93
2024-03-04T01:56:58.679Z,46.27
2024-03-04T01:59:26.747Z,46.23
2024-03-04T02:01:54.641Z,43.80
2024-03-04T02:04:22.585Z,46.00
2024-03-04T02:06:52.176Z,43.87
2024-03-04T02:09:21.879Z,41.03
2024-03-04T02:11:49.566Z,42.13
2024-03-04T02:14:17.182Z,41.37
2024-03-04T02:16:46.276Z,41.17
2024-03-04T02:19:16.265Z,38.90
2024-03-04T02:21:47.233Z,40.57
2024-03-04T02:24:16.487Z,39.47
2024-03-04T02:26:45.162Z,40.30
2024-03-04T02:29:13.215Z,39.57
2024-03-04T02:31:41.430Z,40.07
2024-03-04T02:34:09.762Z,36.47
2024-03-04T02:36:37.917Z,38.47
2024-03-04T02:39:05.851Z,40.17
2024-03-04T02:41:35.130Z,39.20
2024-03-04T02:44:02.882Z,38.13
2024-03-04T02:46:30.794Z,38.03
2024-03-04T02:48:59.174Z,32.90
2024-03-04T02:51:27.011Z,37.37
2024-03-04T02:53:54.745Z,37.03
2024-03-04T02:56:22.359Z,34.47
2024-03-04T02:58:51.473Z,37.80
2024-03-04T03:01:19.442Z,35.30
2024-03-04T03:03:47.163Z,33.97
2024-03-04T03:06:14.800Z,37.37
2024-03-04T03:08:42.626Z,30.47
2024-03-04T03:11:10.375Z,30.90
2024-03-04T03:13:38.464Z,32.30
2024-03-04T03:16:07.875Z,25.17
2024-03-04T03:18:36.361Z,27.80
2024-03-04T03:21:05.495Z,26.63
2024-03-04T03:23:33.124Z,29.33
2024-03-04T03:26:00.741Z,29.87
2024-03-04T03:28:28.979Z,27.83
2024-03-04T03:30:56.862Z,28.07
2024-03-04T03:33:25.822Z,29.10
2024-03-04T03:35:53.558Z,27.47
2024-03-04T03:38:21.296Z,25.87
2024-03-04T03:40:49.133Z,24.73
2024-03-04T03:43:18.552Z,27.37
2024-03-04T03:45:46.282Z,23.43
2024-03-04T03:48:16.697Z,22.77
2024-03-04T03:50:46.272Z,26.43
2024-03-04T03:53:13.927Z,25.57
2024-03-04T03:55:41.638Z,21.70
2024-03-04T03:58:09.358Z,21.53
2024-03-04T04:00:37.556Z,26.80
2024-03-04T04:03:05.479Z,25.20
2024-03-04T04:05:33.135Z,22.17
2024-03-04T04:08:02.133Z,23.57
2024-03-04T04:10:30.039Z,19.10
2024-03-04T04:12:57.787Z,22.93
2024-03-04T04:15:28.309Z,21.37
2024-03-04T04:17:57.485Z,27.23
2024-03-04T04:20:26.373Z,22.63
2024-03-04T04:22:53.968Z,22.70
2024-03-04T04:25:23.245Z,19.57
2024-03-04T04:27:50.925Z,24.40
2024-03-04T04:30:18.787Z,18.57
2024-03-04T04:32:46.864Z,18.23
2024-03-04T04:35:14.528Z,19.90
2024-03-04T04:37:43.157Z,18.53
2024-03-04T04:40:12.140Z,18.97
2024-03-04T04:42:41.756Z,17.37
2024-03-04T04:45:09.537Z,22.57
2024-03-04T04:47:37.238Z,22.33
2024-03-04T04:50:05.739Z,20.80
2024-03-04T04:52:33.805Z,21.07
2024-03-04T04:55:02.191Z,17.87
2024-03-04T04:57:29.908Z,18.07
2024-03-04T04:59:59.069Z,21.37
2024-03-04T05:02:26.638Z,17.97
2024-03-04T05:04:57.956Z,18.20
2024-03-04T05:07:27.659Z,18.67
2024-03-04T05:09:56.024Z,17.40
2024-03-04T05:12:23.782Z,17.83
2024-03-04T05:14:51.996Z,18.97
2024-03-04T05:17:21.673Z,17.13
2024-03-04T05:19:49.397Z,16.97
2024-03-04T05:22:17.037Z,15.57
2024-03-04T05:24:45.736Z,16.47
2024-03-04T05:27:13.603Z,18.50
2024-03-04T05:29:41.289Z,17.00
2024-03-04T05:32:09.165Z,20.47
2024-03-04T05:34:40.741Z,17.50
2024-03-04T05:37:08.522Z,16.10
2024-03-04T05:39:36.134Z,19.27
2024-03-04T05:42:03.733Z,17.80
2024-03-04T05:44:31.571Z,16.33
2024-03-04T05:46:59.567Z,13.67
2024-03-04T05:49:27.529Z,15.63
2024-03-04T05:51:59.755Z,14.73
2024-03-04T05:54:27.511Z,15.20
2024-03-04T05:56:55.174Z,17.57
2024-03-04T05:59:23.034Z,17.80
2024-03-04T06:01:50.734Z,16.80
2024-03-04T06:04:18.636Z,16.70
2024-03-04T06:06:47.448Z,15.00
2024-03-04T06:09:18.024Z,17.77
2024-03-04T06:11:46.997Z,17.70
2024-03-04T06:14:14.740Z,17.03
2024-03-04T06:16:42.755Z,19.70
2024-03-04T06:19:10.452Z,15.60
2024-03-04T06:21:38.213Z,17.67
2024-03-04T06:24:06.136Z,19.10
2024-03-04T06:26:35.549Z,18.63
2024-03-04T06:29:03.181Z,21.23
2024-03-04T06:31:30.873Z,20.97
2024-03-04T06:34:05.952Z,16.83
2024-03-04T06:36:42.416Z,19.03
2024-03-04T06:39:10.760Z,18.30
2024-03-04T06:41:39.826Z,23.73
2024-03-04T06:44:08.765Z,18.47
2024-03-04T06:46:36.590Z,25.87
2024-03-04T06:49:04.723Z,20.97
2024-03-04T06:51:36.325Z,24.27
2024-03-04T06:54:04.890Z,22.20
2024-03-04T06:56:32.759Z,24.07
2024-03-04T06:59:02.433Z,24.60
2024-03-04T07:01:30.583Z,22.57
2024-03-04T07:03:58.561Z,26.83
2024-03-04T07:06:26.671Z,27.83
2024-03-04T07:08:54.395Z,26.60
2024-03-04T07:11:22.387Z,28.00
2024-03-04T07:13:50.766Z,26.03
2024-03-04T07:16:20.760Z,32.43
2024-03-04T07:18:48.723Z,29.83
2024-03-04T07:21:16.843Z,27.73
2024-03-04T07:23:45.207Z,33.97
2024-03-04T07:26:15.436Z,32.20
2024-03-04T07:28:44.962Z,29.43
2024-03-04T07:31:12.904Z,27.00
2024-03-04T07:33:44.333Z,32.17
2024-03-04T07:36:15.533Z,30.17
2024-03-04T07:38:44.515Z,30.27
2024-03-04T07:41:12.156Z,30.17
2024-03-04T07:43:42.422Z,28.57
2024-03-04T07:46:10.236Z,32.47
2024-03-04T07:48:37.898Z,29.60
2024-03-04T07:51:07.719Z,34.83
2024-03-04T07:53:35.353Z,28.53
2024-03-04T07:56:03.127Z,30.27
2024-03-04T07:58:30.884Z,27.57
2024-03-04T08:01:01.149Z,26.47
2024-03-04T08:03:28.933Z,26.50
2024-03-04T08:05:56.956Z,25.40
2024-03-04T08:08:25.932Z,24.97
2024-03-04T08:10:53.823Z,25.83
2024-03-04T08:13:21.840Z,26.00
2024-03-04T08:15:50.135Z,23.67
2024-03-04T08:18:17.995Z,26.10
2024-03-04T08:20:45.929Z,23.83
2024-03-04T08:23:13.880Z,29.13
2024-03-04T08:25:43.530Z,27.10
2024-03-04T08:28:19.963Z,24.57
2024-03-04T08:30:55.761Z,24.37
2024-03-04T08:33:23.523Z,24.90
2024-03-04T08:35:51.170Z,26.77
2024-03-04T08:38:18.832Z,29.53
2024-03-04T08:40:48.336Z,24.73
2024-03-04T08:43:16.612Z,32.83
2024-03-04T08:45:44.285Z,30.73
2024-03-04T08:48:11.963Z,39.03
2024-03-04T08:50:39.832Z,36.40
2024-03-04T08:53:07.731Z,30.97
2024-03-04T08:55:35.497Z,34.80
2024-03-04T08:58:04.711Z,32.40
2024-03-04T09:00:32.835Z,31.67
2024-03-04T09:03:00.598Z,34.47
2024-03-04T09:05:28.301Z,31.27
2024-03-04T09:07:55.930Z,31.53
2024-03-04T09:10:23.758Z,35.53
2024-03-04T09:12:51.528Z,34.90
2024-03-04T09:15:21.392Z,34.27
2024-03-04T09:17:49.191Z,37.30
2024-03-04T09:20:16.981Z,39.77
2024-03-04T09:22:44.719Z,44.77
2024-03-04T09:25:12.539Z,34.70
2024-03-04T09:27:41.210Z,39.57
2024-03-04T09:30:09.442Z,33.17
2024-03-04T09:32:38.644Z,37.40
2024-03-04T09:35:06.856Z,32.07
2024-03-04T09:37:34.582Z,41.93
2024-03-04T09:40:02.570Z,38.43
2024-03-04T09:42:31.301Z,39.00
2024-03-04T09:44:59.443Z,41.97
2024-03-04T09:47:27.298Z,39.30
2024-03-04T09:49:56.491Z,35.10
2024-03-04T09:52:24.700Z,28.70
2024-03-04T09:54:52.650Z,33.57
2024-03-04T09:57:20.841Z,31.63
2024-03-04T09:59:50.322Z,36.70
2024-03-04T10:02:18.563Z,31.67
2024-03-04T10:04:46.372Z,33.30
2024-03-04T10:07:15.837Z,39.50
2024-03-04T10:09:43.639Z,31.03
2024-03-04T10:12:12.080Z,30.63
2024-03-04T10:14:59.744Z,29.77
2024-03-04T10:17:28.283Z,29.00
2024-03-04T10:19:59.880Z,32.87
2024-03-04T10:22:33.385Z,34.33
2024-03-04T10:25:05.616Z,28.33
2024-03-04T10:27:33.442Z,31.13
2024-03-04T10:30:11.346Z,25.87
2024-03-04T10:32:39.640Z,27.13
2024-03-04T10:35:08.013Z,30.47
2024-03-04T10:37:37.536Z,31.20
2024-03-04T10:40:06.418Z,29.70
2024-03-04T10:42:34.520Z,31.60
2024-03-04T10:45:05.381Z,31.87
2024-03-04T10:47:33.644Z,30.60
2024-03-04T10:50:01.782Z,33.27
2024-03-04T10:52:30.090Z,29.20
2024-03-04T10:54:59.558Z,28.90
2024-03-04T10:57:30.646Z,27.87
2024-03-04T10:59:58.993Z,29.87
2024-03-04T11:02:30.804Z,25.23
2024-03-04T11:05:01.857Z,37.00
2024-03-04T11:07:33.038Z,33.70
2024-03-04T11:10:06.005Z,37.23
2024-03-04T11:12:35.052Z,37.23
2024-03-04T11:15:08.328Z,32.53
2024-03-04T11:17:37.947Z,31.60
2024-03-04T11:20:06.853Z,30.23
2024-03-04T11:22:35.544Z,27.87
2024-03-04T11:25:05.944Z,25.53
2024-03-04T11:27:34.132Z,24.10
2024-03-04T11:30:02.222Z,26.20
2024-03-04T11:32:32.484Z,25.00
2024-03-04T11:35:02.484Z,22.53
2024-03-04T11:37:30.352Z,22.33
2024-03-04T11:39:58.620Z,20.83
2024-03-04T11:42:37.064Z,18.13
2024-03-04T11:45:08.939Z,16.17
2024-03-04T11:47:36.947Z,19.47
2024-03-04T11:50:09.949Z,18.90
2024-03-04T11:52:39.581Z,16.73
2024-03-04T11:55:09.358Z,19.77
2024-03-04T11:57:38.518Z,13.60
2024-03-04T12:00:10.608Z,17.90
2024-03-04T12:02:38.887Z,21.90
2024-03-04T12:05:07.021Z,19.97
2024-03-04T12:07:34.961Z,24.87
2024-03-04T12:10:12.341Z,25.63
2024-03-04T12:12:45.667Z,26.23
2024-03-04T12:15:13.286Z,29.40
2024-03-04T12:17:41.722Z,26.97
2024-03-04T12:20:10.163Z,24.43
2024-03-04T12:22:38.798Z,20.07
2024-03-04T12:25:07.789Z,17.13
2024-03-04T12:27:36.170Z,13.60
2024-03-04T12:30:13.074Z,16.17
2024-03-04T12:32:41.157Z,16.07
2024-03-04T12:35:16.246Z,13.40
2024-03-04T12:37:44.637Z,13.77
2024-03-04T12:40:13.098Z,25.00
2024-03-04T12:42:41.025Z,41.63
2024-03-04T12:45:09.016Z,36.17
2024-03-04T12:47:38.039Z,22.97
2024-03-04T12:50:06.963Z,19.77
2024-03-04T12:52:35.921Z,21.93
2024-03-04T12:55:03.739Z,22.60
2024-03-04T12:57:31.433Z,22.40
2024-03-04T13:00:00.411Z,18.37
2024-03-04T13:02:28.080Z,18.83
2024-03-04T13:04:57.547Z,24.63
2024-03-04T13:07:25.476Z,18.63
2024-03-04T13:09:53.448Z,22.43
2024-03-04T13:12:21.137Z,26.27
2024-03-04T13:14:49.050Z,29.87
2024-03-04T13:17:18.899Z,23.20
2024-03-04T13:19:46.893Z,22.93
2024-03-04T13:22:16.116Z,23.13
2024-03-04T13:24:45.014Z,17.43
2024-03-04T13:27:13.140Z,21.13
2024-03-04T13:29:40.944Z,17.33
2024-03-04T13:32:08.591Z,14.30
2024-03-04T13:34:36.299Z,13.07
2024-03-04T13:37:04.222Z,14.80
2024-03-04T13:39:33.316Z,13.33
2024-03-04T13:42:00.947Z,13.03
2024-03-04T13:44:28.600Z,14.87
2024-03-04T13:46:56.455Z,17.23
2024-03-04T13:49:24.822Z,11.93
2024-03-04T13:51:52.531Z,13.20
2024-03-04T13:54:20.167Z,14.30
2024-03-04T13:56:49.307Z,14.13
2024-03-04T13:59:19.159Z,12.47
2024-03-04T14:01:47.187Z,16.37
2024-03-04T14:04:14.954Z,16.13
2024-03-04T14:06:42.754Z,18.20
2024-03-04T14:09:10.516Z,13.17
2024-03-04T14:11:38.267Z,14.20
2024-03-04T14:14:07.321Z,12.40
2024-03-04T14:16:36.322Z,15.57
2024-03-04T14:19:04.822Z,16.47
2024-03-04T14:21:32.522Z,13.20
2024-03-04T14:24:00.526Z,15.87
2024-03-04T14:26:28.176Z,16.63
2024-03-04T14:28:56.114Z,16.50
2024-03-04T14:31:25.372Z,20.17
2024-03-04T14:33:54.040Z,14.93
2024-03-04T14:36:22.338Z,15.70
2024-03-04T14:38:50.304Z,12.90
2024-03-04T14:41:19.069Z,15.47
2024-03-04T14:43:47.106Z,18.27
2024-03-04T14:46:15.340Z,20.03
2024-03-04T14:48:46.588Z,13.57
2024-03-04T14:51:16.353Z,13.83
2024-03-04T14:53:44.404Z,11.27
2024-03-04T14:56:13.174Z,12.50
2024-03-04T14:58:40.890Z,10.20
2024-03-04T15:01:10.513Z,9.57
2024-03-04T15:03:38.419Z,11.90
2024-03-04T15:06:07.870Z,9.83
2024-03-04T15:08:36.071Z,8.13
2024-03-04T15:11:12.565Z,9.33
2024-03-04T15:13:40.630Z,6.27
2024-03-04T15:16:09.370Z,9.93
2024-03-04T15:18:37.761Z,7.93
2024-03-04T15:21:07.196Z,7.17
2024-03-04T15:23:36.507Z,9.27
2024-03-04T15:26:04.424Z,7.90
2024-03-04T15:28:32.157Z,7.97
2024-03-04T15:30:59.818Z,9.37
2024-03-04T15:33:27.954Z,9.43
2024-03-04T15:36:00.413Z,11.93
2024-03-04T15:38:34.675Z,16.10
2024-03-04T15:41:04.108Z,14.40
2024-03-04T15:43:35.245Z,12.50
2024-03-04T15:46:03.218Z,14.63
2024-03-04T15:48:31.267Z,14.73
2024-03-04T15:50:59.092Z,25.67
2024-03-04T15:53:26.701Z,26.87
2024-03-04T15:55:54.839Z,28.63
2024-03-04T15:58:26.118Z,26.87
2024-03-04T16:00:54.177Z,23.47
2024-03-04T16:03:21.989Z,18.03
2024-03-04T16:05:49.893Z,20.33
2024-03-04T16:08:17.902Z,18.80
2024-03-04T16:10:46.028Z,17.93
2024-03-04T16:13:14.560Z,19.77
2024-03-04T16:15:51.828Z,21.03
2024-03-04T16:18:21.546Z,20.90
2024-03-04T16:20:49.177Z,25.00
2024-03-04T16:23:16.982Z,21.50
2024-03-04T16:25:44.758Z,28.13
2024-03-04T16:28:12.569Z,23.57
2024-03-04T16:30:41.826Z,23.40
2024-03-04T16:33:11.072Z,26.17
2024-03-04T16:35:38.794Z,22.73
2024-03-04T16:38:06.694Z,20.70
2024-03-04T16:40:34.705Z,17.33
2024-03-04T16:43:02.804Z,14.77
2024-03-04T16:45:31.947Z,14.20
2024-03-04T16:47:59.804Z,16.60
2024-03-04T16:50:28.987Z,14.83
2024-03-04T16:52:56.791Z,13.60
2024-03-04T16:55:24.517Z,18.77
2024-03-04T16:57:53.241Z,17.00
2024-03-04T17:00:21.184Z,21.50
2024-03-04T17:02:49.081Z,16.10
2024-03-04T17:05:16.939Z,17.10
2024-03-04T17:07:49.330Z,19.00
2024-03-04T17:10:17.774Z,17.13
2024-03-04T17:12:45.676Z,19.07
2024-03-04T17:15:13.710Z,18.40
2024-03-04T17:17:41.854Z,22.77
2024-03-04T17:20:11.104Z,20.53
2024-03-04T17:22:39.147Z,18.70
2024-03-04T17:25:09.369Z,21.30
2024-03-04T17:27:37.113Z,20.43
2024-03-04T17:30:07.754Z,22.23
2024-03-04T17:32:35.487Z,19.23
2024-03-04T17:35:04.963Z,23.87
2024-03-04T17:37:32.683Z,21.90
2024-03-04T17:40:00.908Z,24.17
2024-03-04T17:42:31.664Z,23.83
2024-03-04T17:44:59.922Z,23.73
2024-03-04T17:47:27.660Z,25.23
2024-03-04T17:49:55.855Z,26.33
2024-03-04T17:52:23.712Z,27.77
2024-03-04T17:54:51.646Z,27.00
2024-03-04T17:57:19.522Z,29.67
2024-03-04T17:59:48.743Z,26.53
2024-03-04T18:02:19.741Z,30.93
2024-03-04T18:04:49.201Z,26.80
2024-03-04T18:07:17.455Z,29.20
2024-03-04T18:09:46.406Z,33.03
2024-03-04T18:12:14.323Z,30.90
2024-03-04T18:14:42.554Z,27.50
2024-03-04T18:17:11.731Z,28.60
2024-03-04T18:19:39.425Z,26.87
2024-03-04T18:22:07.787Z,27.97
2024-03-04T18:24:36.179Z,26.37
2024-03-04T18:27:04.052Z,27.90
2024-03-04T18:29:30.835Z,26.30
2024-03-04T18:31:59.085Z,26.67
2024-03-04T18:34:30.674Z,29.57
2024-03-04T18:36:59.701Z,30.97
2024-03-04T18:39:28.529Z,31.43
2024-03-04T18:41:57.982Z,32.90
2024-03-04T18:44:25.621Z,28.50
2024-03-04T18:46:53.504Z,29.77
2024-03-04T18:49:21.319Z,30.33
2024-03-04T18:51:50.962Z,26.20
2024-03-04T18:54:19.012Z,30.30
2024-03-04T18:56:47.447Z,31.70
2024-03-04T18:59:15.067Z,30.67
2024-03-04T19:01:43.109Z,31.03
2024-03-04T19:04:10.875Z,27.47
2024-03-04T19:06:38.978Z,30.03
2024-03-04T19:09:09.713Z,30.27
2024-03-04T19:11:37.494Z,23.30
2024-03-04T19:14:05.152Z,26.23
2024-03-04T19:16:32.938Z,29.43
2024-03-04T19:19:00.593Z,27.90
2024-03-04T19:21:28.890Z,26.33
2024-03-04T19:23:56.558Z,27.20
2024-03-04T19:26:26.789Z,31.60
2024-03-04T19:28:54.564Z,26.63
2024-03-04T19:31:23.092Z,25.87
2024-03-04T19:33:53.741Z,27.93
2024-03-04T19:36:21.719Z,30.37
2024-03-04T19:38:49.326Z,28.93
2024-03-04T19:41:17.809Z,28.07
2024-03-04T19:43:46.967Z,28.63
2024-03-04T19:46:20.237Z,26.37
2024-03-04T19:48:49.546Z,29.97
2024-03-04T19:51:18.039Z,27.10
2024-03-04T19:53:46.207Z,27.77
2024-03-04T19:56:14.135Z,31.13
2024-03-04T19:58:42.903Z,31.97
2024-03-04T20:01:13.156Z,23.80
2024-03-04T20:03:42.424Z,28.43
2024-03-04T20:06:10.391Z,26.77
2024-03-04T20:08:38.635Z,28.90
2024-03-04T20:11:09.924Z,30.77
2024-03-04T20:13:39.631Z,24.20
2024-03-04T20:16:07.753Z,27.37
2024-03-04T20:18:37.446Z,28.20
2024-03-04T20:21:08.008Z,30.63
2024-03-04T20:23:39.597Z,32.87
2024-03-04T20:26:08.571Z,26.93
2024-03-04T20:28:36.859Z,28.27
2024-03-04T20:31:05.111Z,32.33
2024-03-04T20:33:34.406Z,27.57
2024-03-04T20:36:05.528Z,28.20
2024-03-04T20:38:33.517Z,33.70
2024-03-04T20:41:01.633Z,29.13
2024-03-04T20:43:30.019Z,30.83
2024-03-04T20:45:58.439Z,33.63
2024-03-04T20:48:30.554Z,31.70
2024-03-04T20:50:58.833Z,32.63
2024-03-04T20:53:28.286Z,38.50
2024-03-04T20:55:56.677Z,36.97
2024-03-04T20:58:24.596Z,34.83
2024-03-04T21:00:52.692Z,36.20
2024-03-04T21:03:22.700Z,36.83
2024-03-04T21:05:50.321Z,38.40
2024-03-04T21:08:18.542Z,45.50
2024-03-04T21:10:48.387Z,42.67
2024-03-04T21:13:16.416Z,44.97
2024-03-04T21:15:44.091Z,46.27
2024-03-04T21:18:12.367Z,49.00
2024-03-04T21:20:39.960Z,45.27
2024-03-04T21:23:07.829Z,46.43
2024-03-04T21:25:36.747Z,47.37
2024-03-04T21:28:07.405Z,46.93
2024-03-04T21:30:35.182Z,48.77
2024-03-04T21:33:03.239Z,48.80
2024-03-04T21:35:32.577Z,50.17
2024-03-04T21:38:00.224Z,47.17
2024-03-04T21:40:28.291Z,48.77
2024-03-04T21:42:56.215Z,50.00
2024-03-04T21:45:25.272Z,54.00
2024-03-04T21:47:53.470Z,54.90
2024-03-04T21:50:21.042Z,46.43
2024-03-04T21:52:48.969Z,48.77
2024-03-04T21:55:18.405Z,59.13
2024-03-04T21:57:46.179Z,59.70
2024-03-04T22:00:19.466Z,56.93
2024-03-04T22:02:48.323Z,56.13
2024-03-04T22:05:17.438Z,60.83
2024-03-04T22:07:48.569Z,64.07
2024-03-04T22:10:16.564Z,58.00
2024-03-04T22:12:44.184Z,64.93
2024-03-04T22:15:11.776Z,63.67
2024-03-04T22:17:39.483Z,66.57
2024-03-04T22:20:13.569Z,64.37
2024-03-04T22:22:41.768Z,66.50
2024-03-04T22:25:10.634Z,65.57
2024-03-04T22:27:38.222Z,63.70
2024-03-04T22:30:06.178Z,63.13
2024-03-04T22:32:33.686Z,71.20
2024-03-04T22:35:02.115Z,68.10
2024-03-04T22:37:31.851Z,65.37
2024-03-04T22:39:59.857Z,67.03
2024-03-04T22:42:27.581Z,67.50
2024-03-04T22:44:56.517Z,68.60
2024-03-04T22:47:24.709Z,71.93
2024-03-04T22:49:52.580Z,69.00
2024-03-04T22:52:20.377Z,68.17
2024-03-04T22:54:49.677Z,66.07
2024-03-04T22:57:17.538Z,60.30
2024-03-04T22:59:45.464Z,65.33
2024-03-04T23:02:13.662Z,72.13
2024-03-04T23:04:41.932Z,75.50
2024-03-04T23:07:09.594Z,74.03
2024-03-04T23:09:39.307Z,76.33
2024-03-04T23:12:10.135Z,86.43
2024-03-04T23:14:38.395Z,82.07
2024-03-04T23:17:09.383Z,75.80
2024-03-04T23:19:37.778Z,75.10
2024-03-04T23:22:06.957Z,81.40
2024-03-04T23:24:34.662Z,78.70
2024-03-04T23:27:02.302Z,77.73
2024-03-04T23:29:31.313Z,81.73
2024-03-04T23:31:58.984Z,79.27
2024-03-04T23:34:26.912Z,80.77
2024-03-04T23:36:55.231Z,80.53
2024-03-04T23:39:24.457Z,90.13
2024-03-04T23:41:53.009Z,88.67
2024-03-04T23:44:22.035Z,83.93
2024-03-04T23:46:50.995Z,83.87
2024-03-04T23:49:19.194Z,84.53
2024-03-04T23:51:46.878Z,86.63
2024-03-04T23:54:15.424Z,84.30
2024-03-04T23:56:43.229Z,86.93
2024-03-04T23:59:11.320Z,85.50
